MHLC/LCE METAR and TAF weather

Enter ICAO airport designator
Station Type Date Time Source
MHLC METAR 2022/06/30 02:00 UTC NOAA

MHLC 300200Z 17003KT 9999 FEW016 SCT080 26/23 Q1015 A2997 NOSIG


Station Type Date Time Source
MHLC Decoded METAR 2022/06/30 02:00 UTC NOAA

La Ceiba Airport , Honduras (MHLC) 15-44N 086-52W 26M
Jun 29, 2022 - 10:00 PM EDT / 2022.06.30 0200 UTC
Wind: from the S (170 degrees) at 3 MPH (3 KT):0
Visibility: greater than 7 mile(s):0
Sky conditions: partly cloudy
Temperature: 78 F (26 C)
Dew Point: 73 F (23 C)
Relative Humidity: 83%
Pressure (altimeter): 29.97 in. Hg (1014 hPa)
ob: MHLC 300200Z 17003KT 9999 FEW016 SCT080 26/23 Q1015 A2997 NOSIG
cycle: 2

Station Type Date Time Source
MHLC TAF 2022/06/29 18:01 UTC NOAA

TAF MHLC 291700Z 2918/3018 04012KT 9999 SCT028TCU FEW030CB TX31/2919Z TN22/3012Z
TEMPO 2921/3001 5000 TSSHRA
BECMG 3001/3003 VRB03KT 9999 SCT026 BKN080
BECMG 3004/3006 FEW024

Example: see airport list